Time;durP1;ratioP1;P1;durP2;ratioP2;P2;SDS_P1;SDS_P2;PMS_P1;PMS_P2;Temp;Humidity;BMP_temperature;BMP_pressure;BME280_temperature;BME280_humidity;BME280_pressure;Samples;Min_cycle;Max_cycle;Signal;HPM_P1;HPM_P2
2022/09/13 00:00:34;;;;;;;0.93;0.70;;;22.80;90.40;;;;;;5053036;28;20067;-25
2022/09/13 00:03:00;;;;;;;1.88;0.70;;;22.80;90.00;;;;;;5052513;28;20544;-26
2022/09/13 00:05:26;;;;;;;1.00;0.80;;;22.70;90.00;;;;;;5052679;28;20021;-26
2022/09/13 00:07:51;;;;;;;1.25;0.85;;;22.80;90.00;;;;;;5053077;28;20091;-26
2022/09/13 00:10:17;;;;;;;0.95;0.85;;;22.80;90.00;;;;;;5052666;28;20021;-25
2022/09/13 00:12:43;;;;;;;0.90;0.70;;;22.80;90.00;;;;;;5063518;22;20057;-23
2022/09/13 00:15:09;;;;;;;1.73;0.90;;;22.70;90.00;;;;;;5032527;28;20398;-23
2022/09/13 00:17:35;;;;;;;0.80;0.70;;;22.70;90.00;;;;;;5032837;28;20021;-23
2022/09/13 00:20:01;;;;;;;4.35;0.73;;;22.70;90.00;;;;;;5032539;28;20187;-23
2022/09/13 00:22:27;;;;;;;1.38;0.77;;;22.70;90.00;;;;;;5032654;28;20028;-23
2022/09/13 00:24:52;;;;;;;0.80;0.70;;;22.70;90.00;;;;;;5032724;28;20028;-23
2022/09/13 00:27:18;;;;;;;1.63;0.80;;;22.70;90.00;;;;;;5032575;28;20056;-23
2022/09/13 00:29:45;;;;;;;2.17;0.73;;;22.70;90.00;;;;;;5032522;28;20324;-23
2022/09/13 00:32:10;;;;;;;0.70;0.60;;;22.70;90.00;;;;;;5032562;28;20033;-23
2022/09/13 00:34:36;;;;;;;2.92;0.80;;;22.70;90.00;;;;;;5032492;28;20029;-23
2022/09/13 00:37:02;;;;;;;1.20;0.98;;;22.70;90.00;;;;;;5032587;28;20026;-23
2022/09/13 00:39:28;;;;;;;1.50;0.90;;;22.70;90.00;;;;;;5032602;28;20029;-23
2022/09/13 00:41:53;;;;;;;0.90;0.70;;;22.70;90.00;;;;;;5032492;28;20029;-23
2022/09/13 00:44:54;;;;;;;0.70;0.70;;;22.70;90.00;;;;;;5032870;28;20490;-22
2022/09/13 00:47:58;;;;;;;1.20;0.80;;;22.70;90.00;;;;;;5032383;28;20025;-23
2022/09/13 00:50:37;;;;;;;1.27;0.93;;;22.70;90.00;;;;;;5032181;28;20028;-22
2022/09/13 00:53:15;;;;;;;1.15;0.80;;;22.70;90.00;;;;;;5032202;28;20155;-23
2022/09/13 00:55:46;;;;;;;1.23;0.80;;;22.60;90.00;;;;;;5032494;28;20494;-23
2022/09/13 00:58:19;;;;;;;0.90;0.80;;;22.60;90.00;;;;;;5032149;28;20384;-23
2022/09/13 01:00:45;;;;;;;0.55;0.50;;;22.60;90.00;;;;;;5032176;28;20021;-23
2022/09/13 01:03:13;;;;;;;0.88;0.73;;;22.60;90.00;;;;;;5032131;28;20029;-23
2022/09/13 01:05:46;;;;;;;0.73;0.73;;;22.60;90.00;;;;;;5032105;28;20026;-23
2022/09/13 01:08:21;;;;;;;0.95;0.60;;;22.70;90.00;;;;;;5032173;28;20100;-23
2022/09/13 01:10:48;;;;;;;1.75;0.90;;;22.60;90.00;;;;;;5032814;28;20029;-23
2022/09/13 01:13:26;;;;;;;1.10;0.70;;;22.60;90.00;;;;;;5031997;28;20103;-22
2022/09/13 01:15:52;;;;;;;1.17;0.80;;;22.60;90.00;;;;;;5034446;28;20025;-23
2022/09/13 01:18:18;;;;;;;1.35;0.70;;;22.60;90.00;;;;;;5037657;28;20124;-23
2022/09/13 01:21:21;;;;;;;1.00;0.80;;;22.60;90.00;;;;;;5033054;28;20108;-23
2022/09/13 01:24:24;;;;;;;1.40;0.85;;;22.60;90.00;;;;;;5032371;28;20556;-23
2022/09/13 01:27:17;;;;;;;1.45;0.70;;;22.60;90.10;;;;;;5031824;28;20033;-23
2022/09/13 01:29:58;;;;;;;1.30;0.82;;;22.60;90.10;;;;;;5031812;28;20022;-23
2022/09/13 01:32:35;;;;;;;1.08;0.70;;;22.50;90.00;;;;;;5031822;28;20017;-23
2022/09/13 01:35:21;;;;;;;0.98;0.70;;;22.60;90.10;;;;;;5031742;28;20021;-23
2022/09/13 01:38:05;;;;;;;2.33;0.63;;;22.60;90.10;;;;;;5032017;28;20041;-23
2022/09/13 01:40:37;;;;;;;1.75;0.70;;;22.50;90.00;;;;;;5031582;28;20028;-23
2022/09/13 01:43:18;;;;;;;0.73;0.70;;;22.50;90.10;;;;;;5031594;28;20029;-23
2022/09/13 01:45:59;;;;;;;1.05;0.70;;;22.60;90.10;;;;;;5031691;28;20041;-23
2022/09/13 01:48:48;;;;;;;1.00;0.70;;;22.60;90.10;;;;;;5031678;28;20024;-23
2022/09/13 01:51:35;;;;;;;1.80;0.85;;;22.50;90.10;;;;;;5031578;28;20090;-23
2022/09/13 01:54:19;;;;;;;1.00;0.75;;;22.50;90.10;;;;;;5031692;28;20437;-23
2022/09/13 01:56:57;;;;;;;1.45;0.82;;;22.50;90.10;;;;;;5031625;28;20120;-23
2022/09/13 01:59:47;;;;;;;1.20;0.80;;;22.50;90.10;;;;;;5031512;28;20574;-23
2022/09/13 02:02:19;;;;;;;1.05;0.80;;;22.50;90.10;;;;;;5031330;28;20087;-23
2022/09/13 02:04:53;;;;;;;2.53;0.60;;;22.50;90.10;;;;;;5031707;28;20083;-23
2022/09/13 02:07:33;;;;;;;0.60;0.50;;;22.40;90.10;;;;;;5031847;28;20087;-23
2022/09/13 02:10:09;;;;;;;0.82;0.70;;;22.50;90.10;;;;;;5031386;28;20025;-23
2022/09/13 02:12:36;;;;;;;1.48;0.70;;;22.40;90.40;;;;;;5031253;28;20033;-23
2022/09/13 02:15:08;;;;;;;1.25;0.88;;;22.40;90.10;;;;;;5030147;28;20025;-23
2022/09/13 02:17:42;;;;;;;2.58;0.80;;;22.40;90.10;;;;;;5031409;28;20036;-23
2022/09/13 02:20:23;;;;;;;0.98;0.73;;;22.40;90.10;;;;;;5031333;28;20034;-23
2022/09/13 02:22:55;;;;;;;2.20;0.70;;;22.40;90.10;;;;;;5031287;28;20025;-23
2022/09/13 02:25:24;;;;;;;1.10;0.70;;;22.40;90.10;;;;;;5031258;28;20033;-23
2022/09/13 02:27:54;;;;;;;1.85;0.80;;;22.40;90.10;;;;;;5032734;28;20022;-23
2022/09/13 02:30:21;;;;;;;1.17;0.88;;;22.40;90.20;;;;;;5034745;28;20021;-23
2022/09/13 02:32:50;;;;;;;0.80;0.60;;;22.40;90.20;;;;;;5034765;28;20517;-23
2022/09/13 02:35:42;;;;;;;0.90;0.63;;;22.40;90.10;;;;;;5034727;28;20017;-23
2022/09/13 02:38:19;;;;;;;0.80;0.70;;;22.40;90.10;;;;;;5029793;28;20494;-23
2022/09/13 02:40:52;;;;;;;0.88;0.73;;;22.30;90.40;;;;;;5034525;28;20432;-23
2022/09/13 02:43:30;;;;;;;1.00;0.60;;;22.40;90.10;;;;;;5035058;28;20018;-23
2022/09/13 02:46:34;;;;;;;1.27;0.70;;;22.30;90.10;;;;;;5034511;28;20025;-23
2022/09/13 02:49:19;;;;;;;3.00;0.77;;;22.40;90.10;;;;;;5033114;28;20104;-23
2022/09/13 02:52:05;;;;;;;;;;;22.30;90.10;;;;;;5034873;28;20026;-23
2022/09/13 02:54:48;;;;;;;1.20;0.90;;;22.30;90.10;;;;;;5033207;28;20088;-23
2022/09/13 02:57:21;;;;;;;0.95;0.80;;;22.30;90.10;;;;;;5034344;28;20030;-23
2022/09/13 02:59:48;;;;;;;1.35;0.70;;;22.30;90.10;;;;;;5034361;28;20029;-22
2022/09/13 03:02:18;;;;;;;0.80;0.70;;;22.30;90.10;;;;;;5034075;28;20065;-22
2022/09/13 03:04:43;;;;;;;1.30;0.90;;;22.30;90.10;;;;;;5034721;28;20029;-23
2022/09/13 03:07:13;;;;;;;1.23;0.80;;;22.30;90.10;;;;;;5034100;28;20040;-23
2022/09/13 03:09:45;;;;;;;2.13;0.90;;;22.20;90.10;;;;;;5033929;28;20032;-23
2022/09/13 03:12:28;;;;;;;1.33;0.80;;;22.20;90.10;;;;;;5034147;28;20479;-23
2022/09/13 03:15:09;;;;;;;1.77;0.90;;;22.30;90.10;;;;;;5034023;28;20072;-23
2022/09/13 03:17:40;;;;;;;1.73;0.93;;;22.30;90.10;;;;;;5034050;28;20487;-23
2022/09/13 03:20:19;;;;;;;1.52;0.80;;;22.30;90.10;;;;;;5033856;28;20034;-23
2022/09/13 03:23:03;;;;;;;0.68;0.60;;;22.30;90.10;;;;;;5033909;28;20124;-23
2022/09/13 03:26:21;;;;;;;1.30;0.85;;;22.20;90.10;;;;;;5033681;28;20037;-23
2022/09/13 03:28:55;;;;;;;1.38;0.73;;;22.30;90.10;;;;;;5024995;28;20100;-23
2022/09/13 03:31:32;;;;;;;2.08;0.70;;;22.20;90.00;;;;;;5033545;28;20032;-23
2022/09/13 03:34:05;;;;;;;0.85;0.75;;;22.20;90.10;;;;;;5033796;28;20104;-23
2022/09/13 03:36:46;;;;;;;0.90;0.80;;;22.20;90.10;;;;;;5033580;28;20026;-23
2022/09/13 03:39:51;;;;;;;3.20;1.00;;;22.20;90.10;;;;;;5032435;28;20033;-23
2022/09/13 03:42:31;;;;;;;1.55;1.10;;;22.20;90.10;;;;;;5032172;28;20188;-23
2022/09/13 03:44:58;;;;;;;0.95;0.75;;;22.20;90.10;;;;;;5033513;28;20576;-23
2022/09/13 03:47:27;;;;;;;0.93;0.75;;;22.20;90.10;;;;;;5033354;28;20075;-23
2022/09/13 03:49:53;;;;;;;2.55;0.80;;;22.10;90.00;;;;;;5033254;28;20037;-23
2022/09/13 03:52:19;;;;;;;1.17;0.95;;;22.20;90.00;;;;;;5033113;28;20057;-23
2022/09/13 03:54:45;;;;;;;0.85;0.80;;;22.10;90.00;;;;;;5033369;28;20052;-23
2022/09/13 03:57:16;;;;;;;1.02;0.80;;;22.20;90.00;;;;;;5033286;28;20060;-23
2022/09/13 03:59:51;;;;;;;1.45;0.98;;;22.20;90.00;;;;;;5033173;28;20379;-23
2022/09/13 04:02:18;;;;;;;0.60;0.60;;;22.20;90.00;;;;;;5033158;28;20055;-23
2022/09/13 04:04:45;;;;;;;2.10;0.80;;;22.10;90.00;;;;;;5033157;28;20048;-23
2022/09/13 04:07:13;;;;;;;1.08;0.63;;;22.20;90.00;;;;;;5033323;28;20034;-23
2022/09/13 04:09:39;;;;;;;1.52;0.80;;;22.10;90.00;;;;;;5032847;28;20037;-23
2022/09/13 04:12:05;;;;;;;0.95;0.80;;;22.10;90.00;;;;;;5032739;28;20379;-23
2022/09/13 04:14:30;;;;;;;2.88;1.27;;;22.10;90.00;;;;;;5033085;28;20033;-23
2022/09/13 04:16:57;;;;;;;0.65;0.60;;;22.10;89.90;;;;;;5033340;28;20029;-23
2022/09/13 04:19:24;;;;;;;1.25;0.80;;;22.10;90.00;;;;;;5033156;28;20031;-23
2022/09/13 04:21:51;;;;;;;0.98;0.90;;;22.10;90.00;;;;;;5032743;28;20036;-23
2022/09/13 04:24:18;;;;;;;1.35;0.80;;;22.10;89.90;;;;;;5031409;28;20029;-23
2022/09/13 04:26:48;;;;;;;0.90;0.65;;;22.10;89.90;;;;;;5032667;28;20083;-23
2022/09/13 04:29:13;;;;;;;2.50;1.00;;;22.10;90.00;;;;;;5032499;28;20487;-23
2022/09/13 04:31:39;;;;;;;1.83;0.80;;;22.10;90.00;;;;;;5032639;28;20116;-23
2022/09/13 04:34:05;;;;;;;2.83;0.90;;;22.10;90.00;;;;;;5031204;28;20025;-23
2022/09/13 04:36:31;;;;;;;1.30;1.00;;;22.10;90.00;;;;;;5032580;28;20109;-23
2022/09/13 04:38:58;;;;;;;0.73;0.70;;;22.00;90.00;;;;;;5032466;28;20104;-23
2022/09/13 04:41:24;;;;;;;0.80;0.70;;;22.00;89.90;;;;;;5031055;28;20121;-23
2022/09/13 04:43:50;;;;;;;0.75;0.60;;;22.00;90.00;;;;;;5032933;28;20101;-22
2022/09/13 04:46:16;;;;;;;3.33;0.80;;;22.00;90.00;;;;;;5033459;28;20057;-22
2022/09/13 04:48:46;;;;;;;1.60;0.80;;;22.00;90.00;;;;;;5033992;28;20021;-23
2022/09/13 04:51:13;;;;;;;1.23;0.98;;;22.00;90.00;;;;;;5032403;28;20018;-23
2022/09/13 04:53:39;;;;;;;1.00;0.80;;;22.00;90.00;;;;;;5032792;28;20025;-23
2022/09/13 04:56:06;;;;;;;1.30;0.98;;;22.00;89.90;;;;;;5032508;28;20478;-23
2022/09/13 04:58:32;;;;;;;1.48;0.82;;;22.00;90.00;;;;;;5032167;28;20402;-23
2022/09/13 05:01:05;;;;;;;1.95;0.90;;;22.00;89.90;;;;;;5032211;28;20025;-23
2022/09/13 05:03:33;;;;;;;0.80;0.70;;;22.00;90.00;;;;;;5032071;28;20022;-23
2022/09/13 05:06:18;;;;;;;1.13;0.80;;;21.90;89.90;;;;;;5032025;28;20367;-23
2022/09/13 05:08:48;;;;;;;1.48;0.80;;;21.90;89.90;;;;;;5031905;28;20021;-23
2022/09/13 05:11:14;;;;;;;1.58;0.90;;;21.90;90.00;;;;;;5031881;28;20033;-23
2022/09/13 05:13:40;;;;;;;1.60;1.00;;;21.90;89.90;;;;;;5030550;28;20450;-23
2022/09/13 05:16:07;;;;;;;1.60;0.90;;;21.90;90.00;;;;;;5032018;28;20068;-23
2022/09/13 05:18:35;;;;;;;1.38;0.85;;;21.90;90.00;;;;;;5031814;28;20025;-23
2022/09/13 05:21:02;;;;;;;1.67;0.90;;;21.90;90.00;;;;;;5032148;28;20025;-23
2022/09/13 05:23:29;;;;;;;1.67;0.93;;;21.90;90.00;;;;;;5031850;28;20041;-23
2022/09/13 05:25:57;;;;;;;3.00;0.82;;;21.90;90.00;;;;;;5031784;28;20029;-23
2022/09/13 05:28:23;;;;;;;1.05;0.73;;;21.90;90.00;;;;;;5031778;28;20029;-23
2022/09/13 05:31:12;;;;;;;1.65;1.00;;;21.90;90.00;;;;;;5031854;28;20025;-23
2022/09/13 05:33:38;;;;;;;1.15;0.90;;;21.80;90.00;;;;;;5032011;28;20030;-23
2022/09/13 05:36:05;;;;;;;1.40;0.80;;;21.80;90.30;;;;;;5031780;28;20080;-23
2022/09/13 05:38:31;;;;;;;0.93;0.80;;;21.80;90.00;;;;;;5031583;28;20475;-23
2022/09/13 05:40:59;;;;;;;1.08;0.88;;;21.80;90.00;;;;;;5031601;28;20043;-23
2022/09/13 05:43:26;;;;;;;0.85;0.80;;;21.80;90.00;;;;;;5032087;28;20036;-23
2022/09/13 05:46:16;;;;;;;0.80;0.70;;;21.80;90.00;;;;;;5031626;28;20025;-23
2022/09/13 05:48:43;;;;;;;1.40;0.70;;;21.80;90.00;;;;;;5031640;28;20108;-22
2022/09/13 05:51:20;;;;;;;0.98;0.70;;;21.80;90.00;;;;;;5031434;28;20018;-23
2022/09/13 05:53:47;;;;;;;1.08;0.90;;;21.80;90.00;;;;;;5031721;28;20045;-23
2022/09/13 05:56:18;;;;;;;1.50;0.95;;;21.80;90.10;;;;;;5031634;28;20079;-24
2022/09/13 05:58:47;;;;;;;1.30;0.90;;;21.80;90.00;;;;;;5031540;28;20108;-24
2022/09/13 06:01:13;;;;;;;1.92;0.77;;;21.80;90.00;;;;;;5031913;28;20032;-24
2022/09/13 06:03:39;;;;;;;1.88;0.90;;;21.80;90.10;;;;;;5035301;28;20032;-24
2022/09/13 06:06:05;;;;;;;1.13;0.95;;;21.70;90.10;;;;;;5035182;28;20030;-24
2022/09/13 06:08:32;;;;;;;1.65;1.00;;;21.70;90.10;;;;;;5035136;28;20029;-24
2022/09/13 06:11:01;;;;;;;1.08;0.90;;;21.70;90.10;;;;;;5035160;28;20034;-24
2022/09/13 06:13:28;;;;;;;1.40;0.90;;;21.70;90.10;;;;;;5035558;28;20033;-24
2022/09/13 06:15:55;;;;;;;1.17;0.90;;;21.70;90.10;;;;;;5033933;28;20032;-24
2022/09/13 06:18:21;;;;;;;2.78;0.90;;;21.70;90.10;;;;;;5034962;28;20030;-24
2022/09/13 06:20:47;;;;;;;1.52;0.88;;;21.70;90.10;;;;;;5034888;28;20034;-24
2022/09/13 06:23:13;;;;;;;0.80;0.70;;;21.70;90.20;;;;;;5035020;28;20032;-24
2022/09/13 06:25:39;;;;;;;1.35;0.90;;;21.70;90.20;;;;;;5034885;28;20032;-24
2022/09/13 06:28:05;;;;;;;1.30;0.90;;;21.70;90.10;;;;;;5034874;28;20025;-24
2022/09/13 06:30:31;;;;;;;1.20;0.88;;;21.60;90.10;;;;;;5034695;28;20053;-24
2022/09/13 06:32:57;;;;;;;2.55;0.98;;;21.70;90.20;;;;;;5035536;28;20471;-23
2022/09/13 06:35:23;;;;;;;1.30;0.88;;;21.70;90.20;;;;;;5034756;28;20029;-24
2022/09/13 06:37:49;;;;;;;0.88;0.60;;;21.70;90.20;;;;;;5034781;28;20386;-24
2022/09/13 06:40:21;;;;;;;0.73;0.70;;;21.70;90.20;;;;;;5034591;28;20057;-24
2022/09/13 06:42:47;;;;;;;2.40;0.90;;;21.70;90.20;;;;;;5034675;28;20029;-23
2022/09/13 06:45:13;;;;;;;2.45;1.05;;;21.70;90.20;;;;;;5034562;28;20030;-24
2022/09/13 06:47:38;;;;;;;1.17;0.93;;;21.70;90.30;;;;;;5034429;28;20040;-24
2022/09/13 06:50:05;;;;;;;2.10;0.90;;;21.70;90.20;;;;;;5034253;28;20068;-24
2022/09/13 06:52:31;;;;;;;1.98;0.80;;;21.70;90.20;;;;;;5034414;28;20351;-24
2022/09/13 06:54:57;;;;;;;1.55;1.00;;;21.70;90.20;;;;;;5034427;28;20022;-24
2022/09/13 06:57:22;;;;;;;1.10;0.90;;;21.70;90.20;;;;;;5034358;28;20070;-24
2022/09/13 06:59:48;;;;;;;1.17;0.70;;;21.70;90.20;;;;;;5034164;28;20082;-23
2022/09/13 07:02:14;;;;;;;1.33;0.93;;;21.80;90.10;;;;;;5034088;28;20371;-23
2022/09/13 07:04:40;;;;;;;1.77;0.95;;;21.80;90.10;;;;;;5034262;28;20021;-24
2022/09/13 07:07:06;;;;;;;1.98;1.08;;;21.90;90.10;;;;;;5032873;28;20554;-24
2022/09/13 07:09:33;;;;;;;1.00;0.80;;;21.90;90.10;;;;;;5034094;28;20026;-23
2022/09/13 07:11:58;;;;;;;1.85;1.15;;;21.90;90.00;;;;;;5033832;28;20049;-24
2022/09/13 07:14:26;;;;;;;2.38;1.40;;;21.80;90.10;;;;;;5034280;28;20119;-23
2022/09/13 07:16:52;;;;;;;2.45;1.17;;;21.40;90.50;;;;;;5034129;28;20021;-23
2022/09/13 07:19:21;;;;;;;3.90;1.00;;;21.30;90.80;;;;;;5033755;28;20386;-23
2022/09/13 07:21:51;;;;;;;1.70;1.10;;;21.30;90.90;;;;;;5034050;28;20030;-23
2022/09/13 07:24:18;;;;;;;2.70;1.10;;;21.40;90.80;;;;;;5034347;28;20300;-23
2022/09/13 07:26:45;;;;;;;2.72;1.10;;;21.50;90.70;;;;;;5033783;28;20036;-23
2022/09/13 07:29:15;;;;;;;2.70;1.30;;;21.60;90.60;;;;;;5033548;28;20033;-23
2022/09/13 07:31:42;;;;;;;1.77;1.08;;;21.60;90.50;;;;;;5033613;28;20028;-23
2022/09/13 07:34:13;;;;;;;2.75;1.30;;;21.70;90.40;;;;;;5033786;28;20426;-23
2022/09/13 07:36:39;;;;;;;1.70;0.98;;;21.80;90.40;;;;;;5033656;28;20021;-23
2022/09/13 07:39:05;;;;;;;1.92;1.10;;;21.80;90.40;;;;;;5033496;28;20091;-23
2022/09/13 07:41:32;;;;;;;4.43;1.00;;;21.80;90.30;;;;;;5033312;28;20029;-23
2022/09/13 07:44:00;;;;;;;3.25;1.20;;;21.90;90.30;;;;;;5033535;28;20040;-23
2022/09/13 07:46:31;;;;;;;3.95;1.00;;;21.90;90.20;;;;;;5033452;28;20038;-22
2022/09/13 07:48:57;;;;;;;2.50;1.10;;;21.90;90.20;;;;;;5033201;28;20022;-23
2022/09/13 07:51:26;;;;;;;2.05;1.00;;;22.00;90.20;;;;;;5033322;28;20359;-23
2022/09/13 07:53:55;;;;;;;2.75;1.05;;;21.90;90.20;;;;;;5033286;28;20033;-23
2022/09/13 07:56:24;;;;;;;3.70;1.00;;;22.00;90.30;;;;;;5033225;28;20379;-23
2022/09/13 07:58:53;;;;;;;1.55;1.02;;;22.00;90.20;;;;;;5033094;28;20025;-23
2022/09/13 08:01:22;;;;;;;0.98;0.88;;;22.00;90.30;;;;;;5031738;28;20592;-23
2022/09/13 08:04:01;;;;;;;2.72;0.90;;;22.10;90.40;;;;;;5033046;28;20038;-23
2022/09/13 08:06:29;;;;;;;3.35;1.20;;;21.90;91.30;;;;;;5032951;28;20029;-23
2022/09/13 08:08:55;;;;;;;2.33;1.10;;;21.90;91.40;;;;;;5032915;28;20080;-23
2022/09/13 08:11:32;;;;;;;2.88;1.00;;;22.00;91.30;;;;;;5032741;28;20517;-23
2022/09/13 08:13:58;;;;;;;4.30;1.05;;;22.10;91.20;;;;;;5033006;28;20018;-23
2022/09/13 08:16:25;;;;;;;2.28;0.85;;;22.10;91.10;;;;;;5033148;28;20426;-23
2022/09/13 08:18:54;;;;;;;2.67;1.00;;;22.10;91.00;;;;;;5033456;28;20483;-23
2022/09/13 08:21:20;;;;;;;1.65;1.00;;;22.20;90.90;;;;;;5033034;28;20503;-23
2022/09/13 08:23:46;;;;;;;2.13;1.10;;;22.20;90.80;;;;;;5032609;28;20029;-23
2022/09/13 08:26:12;;;;;;;2.70;1.00;;;22.30;90.80;;;;;;5032574;28;20059;-23
2022/09/13 08:28:39;;;;;;;2.60;1.15;;;22.20;90.70;;;;;;5032537;28;20551;-23
2022/09/13 08:31:08;;;;;;;2.10;1.00;;;22.30;90.70;;;;;;5032572;28;20021;-23
2022/09/13 08:33:34;;;;;;;4.13;0.93;;;22.30;90.70;;;;;;5032369;28;20025;-23
2022/09/13 08:36:01;;;;;;;1.58;0.90;;;22.30;90.70;;;;;;5032563;28;20085;-23
2022/09/13 08:38:28;;;;;;;2.08;1.02;;;22.30;90.70;;;;;;5032372;28;20036;-23
2022/09/13 08:41:00;;;;;;;1.65;1.10;;;22.30;90.60;;;;;;5032469;28;20052;-23
2022/09/13 08:43:29;;;;;;;1.50;0.82;;;22.40;90.60;;;;;;5031110;28;20108;-23
2022/09/13 08:46:05;;;;;;;2.40;0.85;;;22.40;90.60;;;;;;5032346;28;20021;-23
2022/09/13 08:48:43;;;;;;;1.95;1.00;;;22.40;90.60;;;;;;5032290;28;20140;-23
2022/09/13 08:51:23;;;;;;;3.78;1.15;;;22.40;90.90;;;;;;5031010;28;20112;-23
2022/09/13 08:53:50;;;;;;;1.10;0.90;;;22.50;90.50;;;;;;5032285;28;20026;-23
2022/09/13 08:56:35;;;;;;;1.52;1.00;;;22.50;90.50;;;;;;5032279;28;20025;-23
2022/09/13 08:59:22;;;;;;;1.67;1.08;;;22.50;90.80;;;;;;5032026;28;20553;-23
2022/09/13 09:01:57;;;;;;;1.48;0.70;;;22.50;90.50;;;;;;5032060;28;20421;-23
2022/09/13 09:04:42;;;;;;;1.40;0.85;;;22.60;90.50;;;;;;5032205;28;20034;-23
2022/09/13 09:07:14;;;;;;;1.90;0.88;;;22.60;90.40;;;;;;5032005;28;20025;-23
2022/09/13 09:09:54;;;;;;;1.35;0.80;;;22.60;90.40;;;;;;5030701;28;20493;-23
2022/09/13 09:12:38;;;;;;;1.40;0.80;;;22.60;90.30;;;;;;5031913;28;20076;-23
2022/09/13 09:15:44;;;;;;;1.20;0.90;;;22.60;90.30;;;;;;5030793;28;20076;-23
2022/09/13 09:18:23;;;;;;;1.77;0.85;;;22.70;90.30;;;;;;5009799;28;20034;-23
2022/09/13 09:20:55;;;;;;;1.67;0.70;;;22.70;90.30;;;;;;5009746;28;20084;-23
2022/09/13 09:23:38;;;;;;;1.35;0.90;;;22.70;90.30;;;;;;5023405;28;20487;-23
2022/09/13 09:26:20;;;;;;;3.22;0.90;;;22.70;90.30;;;;;;5031777;28;20406;-23
2022/09/13 09:28:59;;;;;;;2.35;0.95;;;22.70;90.20;;;;;;5031797;28;20483;-23
2022/09/13 09:32:08;;;;;;;2.08;0.90;;;22.70;90.20;;;;;;5031773;28;20032;-23
2022/09/13 09:35:05;;;;;;;1.65;0.80;;;22.70;90.20;;;;;;5009937;28;20418;-23
2022/09/13 09:37:33;;;;;;;0.82;0.70;;;22.80;90.20;;;;;;5005409;28;20045;-23
2022/09/13 09:40:04;;;;;;;1.77;0.82;;;22.80;90.20;;;;;;5035681;28;20017;-23
2022/09/13 09:42:47;;;;;;;2.20;0.80;;;22.80;90.10;;;;;;5035682;28;20036;-23
2022/09/13 09:45:32;;;;;;;1.73;0.73;;;22.80;90.10;;;;;;5035795;28;20021;-23
2022/09/13 09:48:03;;;;;;;1.30;0.85;;;22.80;90.10;;;;;;5035715;28;20437;-23
2022/09/13 09:50:44;;;;;;;1.30;1.00;;;22.80;90.10;;;;;;5035494;28;20432;-23
2022/09/13 09:53:25;;;;;;;0.80;0.60;;;22.80;90.10;;;;;;5035779;28;20090;-23
2022/09/13 09:56:29;;;;;;;1.45;0.65;;;22.90;90.10;;;;;;5035542;28;20498;-23
2022/09/13 09:58:54;;;;;;;1.33;0.73;;;22.90;90.10;;;;;;5035272;28;20036;-23
2022/09/13 10:01:26;;;;;;;2.75;0.90;;;22.90;90.10;;;;;;5035217;28;20033;-23
2022/09/13 10:04:09;;;;;;;0.65;0.63;;;22.90;90.10;;;;;;5035452;28;20056;-23
2022/09/13 10:06:38;;;;;;;0.77;0.50;;;22.90;90.10;;;;;;5035329;28;20017;-23
2022/09/13 10:09:18;;;;;;;0.95;0.60;;;22.90;90.00;;;;;;5035139;28;20461;-23
2022/09/13 10:11:56;;;;;;;0.77;0.60;;;22.90;90.30;;;;;;5034935;28;20021;-23
2022/09/13 10:14:39;;;;;;;1.77;0.70;;;23.00;90.00;;;;;;5035256;28;20032;-23
2022/09/13 10:17:22;;;;;;;1.88;0.70;;;23.00;89.90;;;;;;5033860;28;20060;-23
2022/09/13 10:19:51;;;;;;;0.67;0.60;;;23.00;89.80;;;;;;5034980;28;20026;-23
2022/09/13 10:22:17;;;;;;;0.90;0.63;;;23.00;89.80;;;;;;5034947;28;20022;-23
2022/09/13 10:24:43;;;;;;;0.63;0.50;;;23.00;89.80;;;;;;5035083;28;20036;-23
2022/09/13 10:27:35;;;;;;;1.00;0.52;;;23.10;89.80;;;;;;5034894;28;20494;-23
2022/09/13 10:30:04;;;;;;;0.82;0.65;;;23.10;89.80;;;;;;5034675;28;20028;-23
2022/09/13 10:32:30;;;;;;;1.40;0.70;;;23.10;89.80;;;;;;5033365;28;20021;-23
2022/09/13 10:35:15;;;;;;;1.23;0.60;;;23.10;89.70;;;;;;5034801;28;20021;-23
2022/09/13 10:37:43;;;;;;;0.98;0.63;;;23.10;89.70;;;;;;5034952;28;20032;-23
2022/09/13 10:40:38;;;;;;;0.90;0.55;;;23.10;89.70;;;;;;5034505;28;20022;-23
2022/09/13 10:43:14;;;;;;;1.38;0.73;;;23.10;89.60;;;;;;5034633;28;20076;-23
2022/09/13 10:45:41;;;;;;;1.00;0.60;;;23.20;89.60;;;;;;5034684;28;20103;-23
2022/09/13 10:48:16;;;;;;;1.65;0.50;;;23.20;89.50;;;;;;5034282;28;20235;-23
2022/09/13 10:51:05;;;;;;;0.65;0.52;;;23.20;89.40;;;;;;5034401;28;20026;-23
2022/09/13 10:53:37;;;;;;;0.75;0.63;;;23.20;89.30;;;;;;5034449;28;20156;-23
2022/09/13 10:56:05;;;;;;;1.00;0.50;;;23.20;89.30;;;;;;5034421;28;20029;-23
2022/09/13 10:58:31;;;;;;;6.20;0.73;;;23.30;89.30;;;;;;5034260;28;20060;-24
2022/09/13 11:01:13;;;;;;;0.50;0.40;;;23.30;89.30;;;;;;5034308;28;20072;-24
2022/09/13 11:03:58;;;;;;;0.40;0.40;;;23.30;89.20;;;;;;5034150;28;20025;-23
2022/09/13 11:06:47;;;;;;;0.50;0.40;;;23.30;89.20;;;;;;5034192;28;20163;-23
2022/09/13 11:09:15;;;;;;;1.45;0.50;;;23.30;89.20;;;;;;5034090;28;20022;-23
2022/09/13 11:12:02;;;;;;;0.40;0.40;;;23.30;89.20;;;;;;5033861;28;20061;-23
2022/09/13 11:14:31;;;;;;;1.10;0.57;;;23.20;89.20;;;;;;5034107;28;20091;-23
2022/09/13 11:17:26;;;;;;;0.70;0.50;;;23.20;89.20;;;;;;5034023;28;20033;-23
2022/09/13 11:19:59;;;;;;;0.82;0.60;;;23.20;89.20;;;;;;5024090;28;20041;-23
2022/09/13 11:22:33;;;;;;;1.65;0.50;;;23.30;89.30;;;;;;5033743;28;20040;-24
2022/09/13 11:25:47;;;;;;;1.33;0.40;;;23.30;89.30;;;;;;5033982;28;20022;-23
2022/09/13 11:28:35;;;;;;;1.45;0.30;;;23.20;80.00;;;;;;5011691;28;20041;-23
2022/09/13 11:31:33;;;;;;;0.77;0.40;;;23.20;81.20;;;;;;5027826;28;20021;-23
2022/09/13 11:34:15;;;;;;;0.70;0.50;;;23.20;81.80;;;;;;5033835;28;20049;-23
2022/09/13 11:36:50;;;;;;;2.40;0.60;;;23.20;82.50;;;;;;5033750;28;20017;-23
2022/09/13 11:39:35;;;;;;;;;;;23.20;83.30;;;;;;5034192;28;20109;-23
2022/09/13 11:42:06;;;;;;;1.65;0.40;;;23.10;83.80;;;;;;5033745;28;19936;-23
2022/09/13 11:45:01;;;;;;;0.50;0.30;;;23.20;84.30;;;;;;5033880;28;20155;-23
2022/09/13 11:47:54;;;;;;;0.63;0.30;;;23.10;84.60;;;;;;5033467;28;20510;-23
2022/09/13 11:50:31;;;;;;;0.88;0.50;;;23.10;84.90;;;;;;5037924;28;20600;-23
2022/09/13 11:53:44;;;;;;;0.63;0.35;;;23.10;85.20;;;;;;5033647;28;20033;-23
2022/09/13 11:56:21;;;;;;;0.63;0.35;;;23.00;85.50;;;;;;5016668;28;20038;-23
2022/09/13 11:59:09;;;;;;;0.63;0.30;;;23.10;85.70;;;;;;5032783;28;20034;-23
2022/09/13 12:01:46;;;;;;;0.70;0.30;;;23.00;85.80;;;;;;5033574;28;20813;-23
2022/09/13 12:04:29;;;;;;;3.13;0.40;;;23.00;85.90;;;;;;5033309;28;20033;-23
2022/09/13 12:07:00;;;;;;;0.75;0.50;;;23.00;86.00;;;;;;5033062;28;20026;-23
2022/09/13 12:09:31;;;;;;;2.50;0.50;;;23.10;86.20;;;;;;5032975;28;20013;-24
2022/09/13 12:12:02;;;;;;;1.25;0.30;;;23.00;86.20;;;;;;5033228;28;20483;-23
2022/09/13 12:14:36;;;;;;;1.17;0.40;;;23.00;86.40;;;;;;5033005;28;20055;-23
2022/09/13 12:17:08;;;;;;;0.90;0.40;;;23.00;86.50;;;;;;5033012;28;20033;-24
2022/09/13 12:19:42;;;;;;;0.52;0.30;;;23.00;86.70;;;;;;5032762;28;20025;-23
2022/09/13 12:22:09;;;;;;;0.57;0.22;;;22.90;86.80;;;;;;5032926;28;20044;-23
2022/09/13 12:24:49;;;;;;;0.40;0.40;;;22.90;86.90;;;;;;5032780;28;20034;-23
2022/09/13 12:27:23;;;;;;;0.63;0.30;;;23.00;87.00;;;;;;5032906;28;20082;-23
2022/09/13 12:30:03;;;;;;;0.73;0.43;;;23.00;87.10;;;;;;5032630;28;20017;-23
2022/09/13 12:32:30;;;;;;;0.30;0.22;;;23.00;87.10;;;;;;5032640;28;20070;-23
2022/09/13 12:35:09;;;;;;;0.63;0.35;;;23.00;87.10;;;;;;5032649;28;20033;-23
2022/09/13 12:37:46;;;;;;;0.73;0.40;;;23.00;87.10;;;;;;5032562;28;20029;-23
2022/09/13 12:40:47;;;;;;;1.02;0.50;;;23.10;87.20;;;;;;5032370;28;20030;-23
2022/09/13 12:43:12;;;;;;;0.45;0.22;;;23.10;87.10;;;;;;5021233;28;20041;-23
2022/09/13 12:45:54;;;;;;;1.77;0.40;;;23.10;87.10;;;;;;5032251;28;20057;-23
2022/09/13 12:48:48;;;;;;;0.63;0.32;;;23.10;87.10;;;;;;5032453;28;20037;-23
2022/09/13 12:51:37;;;;;;;0.65;0.30;;;23.10;87.10;;;;;;5032360;28;20052;-24
2022/09/13 12:54:04;;;;;;;0.70;0.38;;;23.10;87.10;;;;;;5032231;28;20018;-23
2022/09/13 12:56:35;;;;;;;0.30;0.30;;;23.10;87.20;;;;;;5032283;28;20033;-23
2022/09/13 12:59:17;;;;;;;1.88;0.40;;;23.20;87.20;;;;;;5032321;28;20424;-23
2022/09/13 13:01:50;;;;;;;0.57;0.30;;;23.20;87.20;;;;;;5032182;28;20434;-23
2022/09/13 13:04:19;;;;;;;0.43;0.20;;;23.20;87.30;;;;;;5032285;28;20026;-23
2022/09/13 13:06:59;;;;;;;1.67;0.40;;;23.20;87.30;;;;;;5031968;28;20430;-23
2022/09/13 13:09:53;;;;;;;0.40;0.30;;;23.20;87.20;;;;;;5031976;28;20026;-23
2022/09/13 13:12:33;;;;;;;1.00;0.30;;;23.20;87.20;;;;;;5031696;28;20029;-23
2022/09/13 13:15:14;;;;;;;0.60;0.30;;;23.20;87.20;;;;;;5032006;28;20072;-23
2022/09/13 13:17:51;;;;;;;0.65;0.30;;;23.20;87.30;;;;;;5032019;28;20044;-23
2022/09/13 13:20:44;;;;;;;1.25;0.30;;;23.20;87.30;;;;;;5032084;28;20021;-23
2022/09/13 13:23:31;;;;;;;0.40;0.30;;;23.20;87.50;;;;;;5031859;28;20045;-23